Madison, WI

11:30 PM CDT en Abril 30, 2017 (GMT -0500)
Atmospheric, Oceanic and Space Sciences Building | | Change Station

Alt 896 ft 43.07 °N, 89.41 °W | Updated 37 seconds ago

Lluvia
Lluvia
40.1 ° F
Sensación térmica 34 ° F
N
9.2
Viento Variable Viento desde Este

Hoy
Alta -- | Baja -- ° F
--% Posibilidad de precipitaciones
Ayer
Alta -- | Baja -- ° F
Precip. -- pul
Presión 29.60 pul
Visibilidad 6.0 Millas
Nubes Muy nublado 900 ft
Nublado 1500 ft
Vientos helados 34 ° F
Punto de rocío 40 ° F
Humedad 99%
Precipitaciones 0.00 pul
Espesor de la nieve No disponible.
5:52 AM 7:57 PM
Creciente, 29% visible
SPECI KMSN 010335Z 05017G24KT 6SM -TSRA BR BKN009CB OVC015 04/03 A2960 RMK AO2 PK WND 07026/0255 LTG DSNT NE-SE TSE0254B0256E18B34 PRESFR OCNL LTGIC OHD TS OHD MOV N P0005 T00440033
Presión 29.60 pul
Visibilidad 6.0 Millas
Nubes Muy nublado 900 ft
Nublado 1500 ft
Vientos helados 34 ° F
Punto de rocío 40 ° F
Humedad 99%
Precipitaciones 0.00 pul
Espesor de la nieve No disponible.
5:52 AM 7:57 PM
Creciente, 29% visible
SPECI KMSN 010335Z 05017G24KT 6SM -TSRA BR BKN009CB OVC015 04/03 A2960 RMK AO2 PK WND 07026/0255 LTG DSNT NE-SE TSE0254B0256E18B34 PRESFR OCNL LTGIC OHD TS OHD MOV N P0005 T00440033

Get Severe Weather Alerts

Thanks for signing up!

Be on the lookout for a verification email in your inbox.

You'll start receiving the daily forecast at 8 AM.

×

10-Day Weather Forecast

Almanac

Astronomía

Apr. 30, 2017 Salida Puesta
Hora real
Crepúsculo civil
Crepúsculo náutico
Crepúsculo astronómico
Luna
Horas de luz
Horas de luz
Tomorrow will be .
, % of the Moon is Illuminated

Extremos de hoy

Máximos del estado Bajos del estado

Community

WunderPhotos

WunderBlog® & News

Nearby

Calidad del aire

  Calidad del aire Índice AQ Contaminante
Not available.

Grosos de nieve

Estación Profundido Altura

Actividad de terremotos

Ciudad Distance Mag. Tiempo y dato
Magnitud mínima muestra es 2,5.

Temperaturas de aguas costeras

Lugar Temperatura

Stations

Estaciones meteorológicas cercanas

Ubicación de la estación Temp. Vientos helados Punto de rocío Humedad Viento Precip. Alt Actualizado Tipo
                   

Watches & Warnings

There are currently no watches in effect.